Архив погоды на Мысе Лопатка

Метеограмма Мыс Лопатка
Среда, 15 Августа
Время местн. Темп Ветер Видим Явления Облачность нижн/средн/верх Атм. давл. Влжн Точка росы ВНГО R Сост. почвы Tg s
Напр Скр Прв ур.ст ур.м изм
09:00 +11.5° В 12 15 4 км морось или снежные зерна {морось} облачно 756 761 +0.2 99% +11.4° 300 м 1 Влажная (без луж) +10° -
06:00 +10.9° В,Ю-В 9 11 2 км дымка {морось} облачно 756 761 +0.1 99% +10.8° 200 м - - - -
03:00 +10.6° В 7 10 2 км дымка {морось} облачно 756 761 -0.5 99% +10.5° 200 м - - - -
00:00 +10.4° В 8 - 2 км сильная непрерывная морось {ливневые осадки} облачно 756 761 +0.3 99% +10.3° 200 м - - - -
Вторник, 14 Августа
Время местн. Темп Ветер Видим Явления Облачность нижн/средн/верх Атм. давл. Влжн Точка росы ВНГО R Сост. почвы Tg s
Напр Скр Прв ур.ст ур.м изм
21:00 +10.3° В,Ю-В 8 12 2 км сильная непрерывная морось {ливневые осадки} облачно 756 761 -0.1 99% +10.2° 200 м 11 - - -
18:00 +10.4° Ю-В 9 11 2 км слабый ливневый дождь облачно 756 761 -0.7 99% +10.3° 200 м - - - -
15:00 +10.6° Ю-В 9 11 4 км слабый ливневый дождь облачно 757 762 -0.7 99% +10.5° 600 м - - - -
12:00 +10.9° Ю,Ю-В 7 - 4 км слабый ливневый дождь {морось} облачно 758 762 0 99% +10.8° 300 м - - - -
09:00 +10.6° Ю 7 12 2 км умеренная непрерывная морось облачно 758 762 +0.1 99% +10.5° 200 м 14 Влажная (без луж) +11° -
06:00 +10.8° Ю 8 12 2 км ливневый дождь облачно 758 762 -0.5 99% +10.7° 200 м - - - -
03:00 +10.7° Ю 6 - 2 км слабый непрерывный дождь облачно 758 763 -0.3 99% +10.6° 200 м - - - -
00:00 +10.9° Ю-В 8 11 2 км умеренный непрерывный дождь облачно 758 763 -0.5 99% +10.7° 200 м - - - -
Понедельник, 13 Августа
Время местн. Темп Ветер Видим Явления Облачность нижн/средн/верх Атм. давл. Влжн Точка росы ВНГО R Сост. почвы Tg s
Напр Скр Прв ур.ст ур.м изм
21:00 +11° Ю,Ю-В 8 10 4 км умеренный непрерывный дождь облачно 759 763 -0.3 98% +10.7° 600 м 3 - - -
18:00 +11.2° Ю-В 7 - 20 км слабый дождь с перерывами облачно 759 764 -0.2 98% +10.9° 1 км - - - -
15:00 +11.6° Ю,Ю-В 6 - 20 км слабый дождь с перерывами облачно 759 764 -0.2 97% +11.2° 1 км - - - -
12:00 +11.9° Ю,Ю-В 5 - 20 км - облачно 760 764 +0.2 94% +11° 1 км - - - -
09:00 +10.9° Ю 4 - 20 км - облачно 759 764 +0.2 97% +10.5° 1 км 0 Сухая (без трещин) - -
06:00 +10.8° Ю 4 - 20 км - преимущественно облачно 759 764 -0.2 92% +9.6° 1 км - - - -
03:00 +10.6° Ю,Ю-В 4 - 20 км - облачно 759 764 +0.3 98% +10.3° 1 км - - - -
00:00 +11.2° Ю,Ю-В 6 - 20 км - облачно 759 764 +0.4 95% +10.4° 1 км - - - -
Воскресенье, 12 Августа
Время местн. Темп Ветер Видим Явления Облачность нижн/средн/верх Атм. давл. Влжн Точка росы ВНГО R Сост. почвы Tg s
Напр Скр Прв ур.ст ур.м изм
21:00 +11.7° Ю-В 5 - 20 км - облачно 759 763 +0.2 91% +10.2° 1 км 0 - - -
18:00 +13.6° Ю 4 - 20 км - преимущественно облачно 759 763 +0.3 87% +11.5° 1 км - - - -
15:00 +14.3° Ю-В 5 - более 50 км - преимущественно облачно 758 763 +0.1 86% +12° 1 км - - - -
12:00 +13.4° В,Ю-В 4 - 20 км - преимущественно облачно 758 763 +0.7 88% +11.5° 1 км - - - -
09:00 +12.1° В,Ю-В 6 - 20 км - облачно 758 762 +0.5 89% +10.3° 1 км 0 Сухая (без трещин) - -
06:00 +11.1° Ю-В 6 - 20 км - облачно 757 762 +0.6 93% +10° 1 км - - - -